sensor_id;sensor_type;location;lat;lon;timestamp;pressure;altitude;pressure_sealevel;temperature;humidity
74921;BME280;63483;47.384;8.860;2023-02-15T00:00:53;95810.53;;;-1.67;48.83
74921;BME280;63483;47.384;8.860;2023-02-15T00:03:21;95805.53;;;-1.70;48.60
74921;BME280;63483;47.384;8.860;2023-02-15T00:05:47;95812.31;;;-1.69;49.53
74921;BME280;63483;47.384;8.860;2023-02-15T00:08:12;95809.00;;;-1.71;48.68
74921;BME280;63483;47.384;8.860;2023-02-15T00:10:37;95803.03;;;-1.72;48.40
74921;BME280;63483;47.384;8.860;2023-02-15T00:13:03;95801.53;;;-1.76;48.31
74921;BME280;63483;47.384;8.860;2023-02-15T00:15:28;95808.31;;;-1.75;48.21
74921;BME280;63483;47.384;8.860;2023-02-15T00:17:54;95804.03;;;-1.74;48.34
74921;BME280;63483;47.384;8.860;2023-02-15T00:20:19;95804.03;;;-1.74;48.67
74921;BME280;63483;47.384;8.860;2023-02-15T00:22:45;95804.91;;;-1.75;48.40
74921;BME280;63483;47.384;8.860;2023-02-15T00:25:10;95802.50;;;-1.78;48.11
74921;BME280;63483;47.384;8.860;2023-02-15T00:27:35;95800.97;;;-1.82;47.73
74921;BME280;63483;47.384;8.860;2023-02-15T00:30:01;95798.56;;;-1.85;47.96
74921;BME280;63483;47.384;8.860;2023-02-15T00:32:26;95801.13;;;-1.85;47.81
74921;BME280;63483;47.384;8.860;2023-02-15T00:34:51;95798.72;;;-1.88;47.47
74921;BME280;63483;47.384;8.860;2023-02-15T00:37:17;95801.44;;;-1.92;47.93
74921;BME280;63483;47.384;8.860;2023-02-15T00:39:42;95797.19;;;-1.93;47.86
74921;BME280;63483;47.384;8.860;2023-02-15T00:42:07;95792.84;;;-1.91;48.12
74921;BME280;63483;47.384;8.860;2023-02-15T00:44:33;95796.91;;;-1.86;48.21
74921;BME280;63483;47.384;8.860;2023-02-15T00:46:58;95801.13;;;-1.85;47.98
74921;BME280;63483;47.384;8.860;2023-02-15T00:49:23;95801.13;;;-1.85;48.02
74921;BME280;63483;47.384;8.860;2023-02-15T00:51:49;95808.16;;;-1.89;47.96
74921;BME280;63483;47.384;8.860;2023-02-15T00:54:14;95808.41;;;-1.94;46.94
74921;BME280;63483;47.384;8.860;2023-02-15T00:56:39;95806.72;;;-1.95;47.36
74921;BME280;63483;47.384;8.860;2023-02-15T00:59:05;95813.53;;;-1.94;47.86
74921;BME280;63483;47.384;8.860;2023-02-15T01:01:30;95801.66;;;-1.96;47.52
74921;BME280;63483;47.384;8.860;2023-02-15T01:03:56;95805.19;;;-1.99;48.25
74921;BME280;63483;47.384;8.860;2023-02-15T01:06:21;95807.84;;;-2.00;47.78
74921;BME280;63483;47.384;8.860;2023-02-15T01:08:47;95814.88;;;-2.04;46.96
74921;BME280;63483;47.384;8.860;2023-02-15T01:11:18;95811.53;;;-2.06;47.84
74921;BME280;63483;47.384;8.860;2023-02-15T01:13:55;95810.78;;;-2.08;47.70
74921;BME280;63483;47.384;8.860;2023-02-15T01:16:21;95810.00;;;-2.10;48.23
74921;BME280;63483;47.384;8.860;2023-02-15T01:18:47;95813.47;;;-2.29;48.81
74921;BME280;63483;47.384;8.860;2023-02-15T01:21:15;95811.03;;;-3.08;43.65
74921;BME280;63483;47.384;8.860;2023-02-15T01:23:42;95806.75;;;-3.47;43.09
74921;BME280;63483;47.384;8.860;2023-02-15T01:26:08;95811.97;;;-3.91;44.13
74921;BME280;63483;47.384;8.860;2023-02-15T01:28:34;95803.50;;;-4.14;44.03
74921;BME280;63483;47.384;8.860;2023-02-15T01:31:07;95809.06;;;-4.47;43.78
74921;BME280;63483;47.384;8.860;2023-02-15T01:33:34;95809.09;;;-4.70;43.54
74921;BME280;63483;47.384;8.860;2023-02-15T01:36:00;95816.13;;;-4.77;44.03
74921;BME280;63483;47.384;8.860;2023-02-15T01:38:25;95807.72;;;-4.79;44.42
74921;BME280;63483;47.384;8.860;2023-02-15T01:40:52;95801.97;;;-4.86;44.11
74921;BME280;63483;47.384;8.860;2023-02-15T01:43:18;95805.06;;;-5.00;43.66
74921;BME280;63483;47.384;8.860;2023-02-15T01:45:45;95799.31;;;-5.07;43.70
74921;BME280;63483;47.384;8.860;2023-02-15T01:48:22;95795.25;;;-5.12;44.26
74921;BME280;63483;47.384;8.860;2023-02-15T01:50:53;95793.66;;;-5.38;42.94
74921;BME280;63483;47.384;8.860;2023-02-15T01:53:36;95805.72;;;-5.44;41.86
74921;BME280;63483;47.384;8.860;2023-02-15T01:56:13;95793.66;;;-5.64;42.65
74921;BME280;63483;47.384;8.860;2023-02-15T01:58:40;95791.31;;;-5.21;47.19
74921;BME280;63483;47.384;8.860;2023-02-15T02:01:07;95794.59;;;-5.41;57.22
74921;BME280;63483;47.384;8.860;2023-02-15T02:06:13;95799.13;;;-5.74;49.33
74921;BME280;63483;47.384;8.860;2023-02-15T02:08:39;95793.84;;;-6.22;48.54
74921;BME280;63483;47.384;8.860;2023-02-15T02:11:12;95788.38;;;-6.36;49.14
74921;BME280;63483;47.384;8.860;2023-02-15T02:13:39;95788.84;;;-6.52;49.43
74921;BME280;63483;47.384;8.860;2023-02-15T02:16:11;95790.03;;;-6.35;49.16
74921;BME280;63483;47.384;8.860;2023-02-15T02:21:33;95785.47;;;-6.80;48.15
74921;BME280;63483;47.384;8.860;2023-02-15T02:24:23;95781.84;;;-6.73;49.09
74921;BME280;63483;47.384;8.860;2023-02-15T02:41:08;95796.28;;;-6.45;47.92
74921;BME280;63483;47.384;8.860;2023-02-15T02:43:48;95790.78;;;-6.32;47.74
74921;BME280;63483;47.384;8.860;2023-02-15T02:46:30;95792.06;;;-6.18;47.62
74921;BME280;63483;47.384;8.860;2023-02-15T02:48:57;95789.91;;;-6.32;46.92
74921;BME280;63483;47.384;8.860;2023-02-15T02:51:22;95793.38;;;-6.33;45.46
74921;BME280;63483;47.384;8.860;2023-02-15T02:53:52;95787.41;;;-6.34;46.60
74921;BME280;63483;47.384;8.860;2023-02-15T02:56:30;95782.09;;;-5.99;50.54
74921;BME280;63483;47.384;8.860;2023-02-15T03:01:38;95786.91;;;-6.43;52.92
74921;BME280;63483;47.384;8.860;2023-02-15T03:04:14;95780.50;;;-6.57;50.44
74921;BME280;63483;47.384;8.860;2023-02-15T03:07:09;95781.63;;;-6.66;50.20
74921;BME280;63483;47.384;8.860;2023-02-15T03:09:43;95784.75;;;-6.86;50.78
74921;BME280;63483;47.384;8.860;2023-02-15T03:12:22;95784.94;;;-6.92;50.37
74921;BME280;63483;47.384;8.860;2023-02-15T03:14:55;95779.03;;;-6.92;49.51
74921;BME280;63483;47.384;8.860;2023-02-15T03:17:23;95780.84;;;-6.97;49.75
74921;BME280;63483;47.384;8.860;2023-02-15T03:19:54;95782.56;;;-6.98;50.84
74921;BME280;63483;47.384;8.860;2023-02-15T03:22:26;95785.72;;;-7.20;48.85
74921;BME280;63483;47.384;8.860;2023-02-15T03:25:01;95790.22;;;-7.28;50.53
74921;BME280;63483;47.384;8.860;2023-02-15T03:27:32;95783.44;;;-7.29;50.09
74921;BME280;63483;47.384;8.860;2023-02-15T03:29:59;95770.94;;;-7.07;50.01
74921;BME280;63483;47.384;8.860;2023-02-15T03:32:29;95773.56;;;-7.10;49.62
74921;BME280;63483;47.384;8.860;2023-02-15T03:34:56;95779.66;;;-7.15;48.90
74921;BME280;63483;47.384;8.860;2023-02-15T03:37:55;95781.63;;;-6.94;49.62
74921;BME280;63483;47.384;8.860;2023-02-15T03:40:30;95779.31;;;-6.73;48.92
74921;BME280;63483;47.384;8.860;2023-02-15T03:43:41;95780.50;;;-6.57;49.13
74921;BME280;63483;47.384;8.860;2023-02-15T03:49:10;95777.25;;;-6.90;47.17
74921;BME280;63483;47.384;8.860;2023-02-15T03:51:40;95783.09;;;-6.87;46.57
74921;BME280;63483;47.384;8.860;2023-02-15T03:54:14;95785.56;;;-6.84;47.23
74921;BME280;63483;47.384;8.860;2023-02-15T03:57:01;95783.00;;;-6.55;48.02
74921;BME280;63483;47.384;8.860;2023-02-15T03:59:45;95784.66;;;-6.26;57.88
74921;BME280;63483;47.384;8.860;2023-02-15T04:02:37;95780.78;;;-5.61;56.53
74921;BME280;63483;47.384;8.860;2023-02-15T04:05:03;95781.31;;;-5.27;54.51
74921;BME280;63483;47.384;8.860;2023-02-15T04:07:29;95782.13;;;-5.01;54.42
74921;BME280;63483;47.384;8.860;2023-02-15T04:09:54;95781.34;;;-4.81;53.25
74921;BME280;63483;47.384;8.860;2023-02-15T04:12:38;95783.22;;;-4.63;53.57
74921;BME280;63483;47.384;8.860;2023-02-15T04:15:03;95784.47;;;-4.51;52.92
74921;BME280;63483;47.384;8.860;2023-02-15T04:17:47;95781.56;;;-4.42;51.98
74921;BME280;63483;47.384;8.860;2023-02-15T04:20:13;95781.97;;;-4.30;52.75
74921;BME280;63483;47.384;8.860;2023-02-15T04:22:56;95778.16;;;-4.20;52.11
74921;BME280;63483;47.384;8.860;2023-02-15T04:25:40;95784.75;;;-4.14;51.92
74921;BME280;63483;47.384;8.860;2023-02-15T04:28:05;95790.34;;;-4.05;51.39
74921;BME280;63483;47.384;8.860;2023-02-15T04:30:32;95789.94;;;-3.95;51.23
74921;BME280;63483;47.384;8.860;2023-02-15T04:32:58;95782.94;;;-3.90;51.48
74921;BME280;63483;47.384;8.860;2023-02-15T04:35:23;95783.50;;;-3.84;50.72
74921;BME280;63483;47.384;8.860;2023-02-15T04:37:49;95779.78;;;-3.76;50.90
74921;BME280;63483;47.384;8.860;2023-02-15T04:40:15;95779.59;;;-3.72;50.68
74921;BME280;63483;47.384;8.860;2023-02-15T04:42:41;95782.03;;;-3.69;50.45
74921;BME280;63483;47.384;8.860;2023-02-15T04:45:07;95780.13;;;-3.63;50.94
74921;BME280;63483;47.384;8.860;2023-02-15T04:47:32;95774.88;;;-3.60;50.80
74921;BME280;63483;47.384;8.860;2023-02-15T04:49:58;95772.16;;;-3.57;50.83
74921;BME280;63483;47.384;8.860;2023-02-15T04:52:23;95774.59;;;-3.54;50.12
74921;BME280;63483;47.384;8.860;2023-02-15T04:54:49;95776.13;;;-3.50;49.81
74921;BME280;63483;47.384;8.860;2023-02-15T04:57:14;95773.38;;;-3.45;50.29
74921;BME280;63483;47.384;8.860;2023-02-15T04:59:40;95768.19;;;-3.44;49.85
74921;BME280;63483;47.384;8.860;2023-02-15T05:02:05;95778.28;;;-3.41;50.45
74921;BME280;63483;47.384;8.860;2023-02-15T05:04:31;95772.16;;;-3.37;50.28
74921;BME280;63483;47.384;8.860;2023-02-15T05:06:56;95774.72;;;-3.37;50.34
74921;BME280;63483;47.384;8.860;2023-02-15T05:09:21;95767.72;;;-3.33;50.41
74921;BME280;63483;47.384;8.860;2023-02-15T05:11:47;95771.13;;;-3.33;50.05
74921;BME280;63483;47.384;8.860;2023-02-15T05:14:12;95771.06;;;-3.31;50.25
74921;BME280;63483;47.384;8.860;2023-02-15T05:16:37;95758.19;;;-3.29;49.81
74921;BME280;63483;47.384;8.860;2023-02-15T05:19:04;95758.19;;;-3.29;50.02
74921;BME280;63483;47.384;8.860;2023-02-15T05:21:29;95766.63;;;-3.27;50.02
74921;BME280;63483;47.384;8.860;2023-02-15T05:23:54;95769.97;;;-3.25;50.07
74921;BME280;63483;47.384;8.860;2023-02-15T05:26:22;95761.34;;;-3.24;49.62
74921;BME280;63483;47.384;8.860;2023-02-15T05:29:06;95765.53;;;-3.22;49.95
74921;BME280;63483;47.384;8.860;2023-02-15T05:31:32;95755.13;;;-3.19;49.74
74921;BME280;63483;47.384;8.860;2023-02-15T05:33:58;95762.75;;;-3.17;49.49
74921;BME280;63483;47.384;8.860;2023-02-15T05:36:24;95756.66;;;-3.15;49.67
74921;BME280;63483;47.384;8.860;2023-02-15T05:38:49;95753.97;;;-3.11;49.73
74921;BME280;63483;47.384;8.860;2023-02-15T05:41:15;95752.22;;;-3.11;49.29
74921;BME280;63483;47.384;8.860;2023-02-15T05:43:40;95753.00;;;-3.09;48.95
74921;BME280;63483;47.384;8.860;2023-02-15T05:46:07;95757.22;;;-3.08;49.11
74921;BME280;63483;47.384;8.860;2023-02-15T05:48:33;95764.06;;;-3.08;49.16
74921;BME280;63483;47.384;8.860;2023-02-15T05:51:00;95760.69;;;-3.09;48.90
74921;BME280;63483;47.384;8.860;2023-02-15T05:53:27;95757.34;;;-3.11;49.24
74921;BME280;63483;47.384;8.860;2023-02-15T05:55:53;95757.34;;;-3.11;49.17
74921;BME280;63483;47.384;8.860;2023-02-15T05:58:26;95764.16;;;-3.10;48.90
74921;BME280;63483;47.384;8.860;2023-02-15T06:00:52;95775.59;;;-3.38;50.74
74921;BME280;63483;47.384;8.860;2023-02-15T06:03:18;95773.31;;;-4.06;45.98
74921;BME280;63483;47.384;8.860;2023-02-15T06:05:43;95772.63;;;-4.76;45.23
74921;BME280;63483;47.384;8.860;2023-02-15T06:08:09;95771.09;;;-5.27;46.44
74921;BME280;63483;47.384;8.860;2023-02-15T06:10:34;95771.13;;;-5.52;46.76
74921;BME280;63483;47.384;8.860;2023-02-15T06:12:59;95785.50;;;-6.00;46.62
74921;BME280;63483;47.384;8.860;2023-02-15T06:15:25;95777.41;;;-6.13;47.79
74921;BME280;63483;47.384;8.860;2023-02-15T06:17:50;95777.22;;;-6.34;47.18
74921;BME280;63483;47.384;8.860;2023-02-15T06:20:15;95775.22;;;-6.51;48.43
74921;BME280;63483;47.384;8.860;2023-02-15T06:22:41;95788.63;;;-6.45;48.25
74921;BME280;63483;47.384;8.860;2023-02-15T06:25:06;95795.22;;;-6.67;48.18
74921;BME280;63483;47.384;8.860;2023-02-15T06:27:35;95790.03;;;-6.63;48.40
74921;BME280;63483;47.384;8.860;2023-02-15T06:30:00;95790.09;;;-6.65;48.39
74921;BME280;63483;47.384;8.860;2023-02-15T06:32:25;95798.28;;;-6.84;46.80
74921;BME280;63483;47.384;8.860;2023-02-15T06:34:51;95798.88;;;-6.75;47.52
74921;BME280;63483;47.384;8.860;2023-02-15T06:37:16;95792.72;;;-6.68;47.46
74921;BME280;63483;47.384;8.860;2023-02-15T06:39:41;95797.19;;;-6.46;46.91
74921;BME280;63483;47.384;8.860;2023-02-15T06:42:08;95798.84;;;-6.45;45.86
74921;BME280;63483;47.384;8.860;2023-02-15T06:44:33;95800.94;;;-6.58;46.35
74921;BME280;63483;47.384;8.860;2023-02-15T06:46:58;95806.34;;;-6.69;46.61
74921;BME280;63483;47.384;8.860;2023-02-15T06:49:23;95798.28;;;-6.84;45.50
74921;BME280;63483;47.384;8.860;2023-02-15T06:51:49;95811.47;;;-6.99;44.76
74921;BME280;63483;47.384;8.860;2023-02-15T06:54:14;95807.72;;;-7.17;44.95
74921;BME280;63483;47.384;8.860;2023-02-15T06:56:40;95807.91;;;-7.23;45.28
74921;BME280;63483;47.384;8.860;2023-02-15T06:59:05;95805.22;;;-6.89;48.07
74921;BME280;63483;47.384;8.860;2023-02-15T07:01:30;95812.50;;;-6.76;57.59
74921;BME280;63483;47.384;8.860;2023-02-15T07:03:56;95818.84;;;-6.90;55.60
74921;BME280;63483;47.384;8.860;2023-02-15T07:06:21;95809.28;;;-7.11;52.17
74921;BME280;63483;47.384;8.860;2023-02-15T07:08:46;95810.03;;;-7.39;51.16
74921;BME280;63483;47.384;8.860;2023-02-15T07:11:12;95814.72;;;-7.24;52.35
74921;BME280;63483;47.384;8.860;2023-02-15T07:13:55;95815.28;;;-7.45;51.32
74921;BME280;63483;47.384;8.860;2023-02-15T07:16:21;95815.91;;;-7.37;50.92
74921;BME280;63483;47.384;8.860;2023-02-15T07:18:46;95817.69;;;-7.72;50.31
74921;BME280;63483;47.384;8.860;2023-02-15T07:21:11;95820.44;;;-7.80;50.44
74921;BME280;63483;47.384;8.860;2023-02-15T07:23:38;95812.09;;;-7.86;50.66
74921;BME280;63483;47.384;8.860;2023-02-15T07:26:05;95815.44;;;-7.84;50.42
74921;BME280;63483;47.384;8.860;2023-02-15T07:28:31;95815.63;;;-7.92;50.43
74921;BME280;63483;47.384;8.860;2023-02-15T07:30:56;95822.00;;;-7.76;51.10
74921;BME280;63483;47.384;8.860;2023-02-15T07:33:23;95816.00;;;-7.73;50.72
74921;BME280;63483;47.384;8.860;2023-02-15T07:35:54;95818.88;;;-7.53;50.25
74921;BME280;63483;47.384;8.860;2023-02-15T07:38:20;95810.19;;;-7.45;50.12
74921;BME280;63483;47.384;8.860;2023-02-15T07:40:46;95817.66;;;-7.39;49.77
74921;BME280;63483;47.384;8.860;2023-02-15T07:43:12;95803.69;;;-7.24;50.46
74921;BME280;63483;47.384;8.860;2023-02-15T07:45:39;95802.84;;;-7.25;49.31
74921;BME280;63483;47.384;8.860;2023-02-15T07:48:05;95805.81;;;-7.40;47.84
74921;BME280;63483;47.384;8.860;2023-02-15T07:50:31;95797.94;;;-7.31;48.58
74921;BME280;63483;47.384;8.860;2023-02-15T07:52:57;95800.09;;;-7.17;49.42
74921;BME280;63483;47.384;8.860;2023-02-15T07:55:22;95796.41;;;-7.07;49.07
74921;BME280;63483;47.384;8.860;2023-02-15T07:57:49;95804.78;;;-7.03;47.58
74921;BME280;63483;47.384;8.860;2023-02-15T08:00:16;95792.13;;;-7.06;50.10
74921;BME280;63483;47.384;8.860;2023-02-15T08:02:47;95796.63;;;-6.85;57.95
74921;BME280;63483;47.384;8.860;2023-02-15T08:05:13;95795.91;;;-6.90;60.60
74921;BME280;63483;47.384;8.860;2023-02-15T08:07:38;95788.34;;;-6.93;54.66
74921;BME280;63483;47.384;8.860;2023-02-15T08:10:04;95782.66;;;-7.01;52.53
74921;BME280;63483;47.384;8.860;2023-02-15T08:12:29;95782.13;;;-7.12;53.07
74921;BME280;63483;47.384;8.860;2023-02-15T08:14:54;95781.84;;;-7.03;52.30
74921;BME280;63483;47.384;8.860;2023-02-15T08:17:20;95780.41;;;-7.10;52.23
74921;BME280;63483;47.384;8.860;2023-02-15T08:19:45;95769.41;;;-7.12;53.62
74921;BME280;63483;47.384;8.860;2023-02-15T08:22:13;95775.34;;;-7.13;52.65
74921;BME280;63483;47.384;8.860;2023-02-15T08:24:39;95772.88;;;-6.85;53.32
74921;BME280;63483;47.384;8.860;2023-02-15T08:27:07;95772.34;;;-6.68;51.47
74921;BME280;63483;47.384;8.860;2023-02-15T08:29:34;95770.00;;;-6.74;50.56
74921;BME280;63483;47.384;8.860;2023-02-15T08:32:06;95768.06;;;-6.68;51.84
74921;BME280;63483;47.384;8.860;2023-02-15T08:34:35;95767.34;;;-6.71;51.05
74921;BME280;63483;47.384;8.860;2023-02-15T08:37:00;95768.72;;;-6.61;50.76
74921;BME280;63483;47.384;8.860;2023-02-15T08:39:26;95771.66;;;-6.45;51.45
74921;BME280;63483;47.384;8.860;2023-02-15T08:41:51;95765.84;;;-6.23;50.64
74921;BME280;63483;47.384;8.860;2023-02-15T08:44:18;95769.16;;;-6.20;51.25
74921;BME280;63483;47.384;8.860;2023-02-15T08:46:45;95762.06;;;-6.12;52.65
74921;BME280;63483;47.384;8.860;2023-02-15T08:49:13;95756.38;;;-5.93;50.51
74921;BME280;63483;47.384;8.860;2023-02-15T08:51:40;95760.16;;;-5.80;50.07
74921;BME280;63483;47.384;8.860;2023-02-15T08:54:08;95762.28;;;-5.67;49.01
74921;BME280;63483;47.384;8.860;2023-02-15T08:56:39;95756.53;;;-5.72;51.98
74921;BME280;63483;47.384;8.860;2023-02-15T08:59:06;95756.09;;;-5.60;50.83
74921;BME280;63483;47.384;8.860;2023-02-15T09:01:33;95756.56;;;-5.01;53.64
74921;BME280;63483;47.384;8.860;2023-02-15T09:04:05;95764.75;;;-4.93;60.58
74921;BME280;63483;47.384;8.860;2023-02-15T09:06:31;95751.34;;;-4.98;53.95
74921;BME280;63483;47.384;8.860;2023-02-15T09:08:57;95752.34;;;-5.02;54.83
74921;BME280;63483;47.384;8.860;2023-02-15T09:11:30;95752.22;;;-4.99;52.86
74921;BME280;63483;47.384;8.860;2023-02-15T09:14:02;95749.66;;;-4.99;53.02
74921;BME280;63483;47.384;8.860;2023-02-15T09:16:30;95749.91;;;-5.05;51.58
74921;BME280;63483;47.384;8.860;2023-02-15T09:18:56;95749.91;;;-5.05;52.51
74921;BME280;63483;47.384;8.860;2023-02-15T09:21:30;95746.56;;;-5.08;54.03
74921;BME280;63483;47.384;8.860;2023-02-15T09:23:58;95742.56;;;-4.91;54.02
74921;BME280;63483;47.384;8.860;2023-02-15T09:26:26;95737.25;;;-4.86;51.64
74921;BME280;63483;47.384;8.860;2023-02-15T09:28:57;95736.53;;;-4.90;52.13
74921;BME280;63483;47.384;8.860;2023-02-15T09:31:25;95745.63;;;-4.83;52.58
74921;BME280;63483;47.384;8.860;2023-02-15T09:33:51;95743.16;;;-4.62;53.40
74921;BME280;63483;47.384;8.860;2023-02-15T09:36:31;95744.50;;;-4.31;55.37
74921;BME280;63483;47.384;8.860;2023-02-15T09:38:59;95746.25;;;-3.91;56.12
74921;BME280;63483;47.384;8.860;2023-02-15T09:41:40;95742.47;;;-3.61;58.66
74921;BME280;63483;47.384;8.860;2023-02-15T09:49:40;95734.16;;;-2.52;59.66
74921;BME280;63483;47.384;8.860;2023-02-15T09:52:28;95733.69;;;-2.24;59.67
74921;BME280;63483;47.384;8.860;2023-02-15T09:57:47;95729.59;;;-1.42;57.47
74921;BME280;63483;47.384;8.860;2023-02-15T10:00:53;95733.91;;;-1.09;56.08
74921;BME280;63483;47.384;8.860;2023-02-15T10:03:48;95729.47;;;-0.90;55.22
74921;BME280;63483;47.384;8.860;2023-02-15T10:25:46;95720.09;;;0.47;52.34
74921;BME280;63483;47.384;8.860;2023-02-15T10:28:18;95706.47;;;0.59;52.88
74921;BME280;63483;47.384;8.860;2023-02-15T10:30:49;95705.56;;;0.60;52.81
74921;BME280;63483;47.384;8.860;2023-02-15T10:38:42;95695.50;;;0.84;53.65
74921;BME280;63483;47.384;8.860;2023-02-15T10:49:23;95679.47;;;0.94;52.24
74921;BME280;63483;47.384;8.860;2023-02-15T10:51:57;95680.56;;;1.04;52.64
74921;BME280;63483;47.384;8.860;2023-02-15T11:06:07;95660.09;;;1.95;48.93
74921;BME280;63483;47.384;8.860;2023-02-15T11:09:08;95655.06;;;2.07;49.39
74921;BME280;63483;47.384;8.860;2023-02-15T11:11:37;95651.53;;;2.21;48.52
74921;BME280;63483;47.384;8.860;2023-02-15T11:14:23;95649.06;;;2.45;48.66
74921;BME280;63483;47.384;8.860;2023-02-15T11:16:57;95653.72;;;2.65;47.54
74921;BME280;63483;47.384;8.860;2023-02-15T11:19:35;95639.00;;;2.79;46.95
74921;BME280;63483;47.384;8.860;2023-02-15T11:22:05;95640.22;;;2.86;46.24
74921;BME280;63483;47.384;8.860;2023-02-15T11:24:42;95643.38;;;3.27;43.50
74921;BME280;63483;47.384;8.860;2023-02-15T11:27:20;95636.94;;;3.32;44.92
74921;BME280;63483;47.384;8.860;2023-02-15T11:29:58;95635.63;;;3.51;43.70
74921;BME280;63483;47.384;8.860;2023-02-15T11:33:01;95626.97;;;3.63;44.62
74921;BME280;63483;47.384;8.860;2023-02-15T11:35:31;95631.34;;;3.74;45.62
74921;BME280;63483;47.384;8.860;2023-02-15T11:38:38;95628.69;;;3.87;44.60
74921;BME280;63483;47.384;8.860;2023-02-15T11:41:17;95622.69;;;3.98;43.57
74921;BME280;63483;47.384;8.860;2023-02-15T11:46:23;95608.47;;;4.26;43.30
74921;BME280;63483;47.384;8.860;2023-02-15T11:48:49;95611.53;;;4.20;44.02
74921;BME280;63483;47.384;8.860;2023-02-15T11:51:17;95608.72;;;4.46;41.54
74921;BME280;63483;47.384;8.860;2023-02-15T11:53:45;95608.94;;;4.42;42.91
74921;BME280;63483;47.384;8.860;2023-02-15T11:56:22;95603.19;;;4.50;42.00
74921;BME280;63483;47.384;8.860;2023-02-15T11:59:08;95604.00;;;4.62;41.31
74921;BME280;63483;47.384;8.860;2023-02-15T12:01:43;95600.44;;;4.63;41.46
74921;BME280;63483;47.384;8.860;2023-02-15T12:04:30;95605.16;;;4.69;41.78
74921;BME280;63483;47.384;8.860;2023-02-15T12:07:20;95589.13;;;4.75;40.93
74921;BME280;63483;47.384;8.860;2023-02-15T12:12:29;95591.00;;;4.96;40.68
74921;BME280;63483;47.384;8.860;2023-02-15T12:14:57;95592.16;;;5.03;41.70
74921;BME280;63483;47.384;8.860;2023-02-15T12:17:27;95588.97;;;5.11;41.95
74921;BME280;63483;47.384;8.860;2023-02-15T12:20:00;95578.47;;;5.01;42.50
74921;BME280;63483;47.384;8.860;2023-02-15T12:22:31;95573.84;;;5.37;41.52
74921;BME280;63483;47.384;8.860;2023-02-15T12:25:04;95567.31;;;5.22;41.65
74921;BME280;63483;47.384;8.860;2023-02-15T12:27:42;95577.88;;;5.41;41.44
74921;BME280;63483;47.384;8.860;2023-02-15T12:33:02;95576.97;;;5.52;40.69
74921;BME280;63483;47.384;8.860;2023-02-15T12:35:33;95578.72;;;5.63;40.37
74921;BME280;63483;47.384;8.860;2023-02-15T12:38:19;95569.47;;;5.70;40.80
74921;BME280;63483;47.384;8.860;2023-02-15T12:41:04;95575.16;;;5.64;40.28
74921;BME280;63483;47.384;8.860;2023-02-15T12:43:35;95575.09;;;5.75;40.67
74921;BME280;63483;47.384;8.860;2023-02-15T12:46:25;95570.09;;;5.83;37.89
74921;BME280;63483;47.384;8.860;2023-02-15T12:49:16;95564.06;;;5.83;38.32
74921;BME280;63483;47.384;8.860;2023-02-15T12:52:05;95561.69;;;6.01;38.27
74921;BME280;63483;47.384;8.860;2023-02-15T12:54:37;95555.69;;;6.00;38.50
74921;BME280;63483;47.384;8.860;2023-02-15T13:02:54;95551.63;;;6.08;38.03
74921;BME280;63483;47.384;8.860;2023-02-15T13:05:31;95560.69;;;6.13;37.37
74921;BME280;63483;47.384;8.860;2023-02-15T13:08:00;95560.53;;;6.15;37.19
74921;BME280;63483;47.384;8.860;2023-02-15T13:10:29;95552.28;;;6.31;36.05
74921;BME280;63483;47.384;8.860;2023-02-15T13:12:56;95550.63;;;6.30;36.69
74921;BME280;63483;47.384;8.860;2023-02-15T13:15:35;95548.00;;;6.30;37.15
74921;BME280;63483;47.384;8.860;2023-02-15T13:18:02;95550.34;;;6.33;37.53
74921;BME280;63483;47.384;8.860;2023-02-15T13:20:29;95538.75;;;6.37;36.65
74921;BME280;63483;47.384;8.860;2023-02-15T13:23:00;95536.16;;;6.37;37.87
74921;BME280;63483;47.384;8.860;2023-02-15T13:25:29;95537.53;;;6.41;37.25
74921;BME280;63483;47.384;8.860;2023-02-15T13:28:01;95535.38;;;6.46;36.03
74921;BME280;63483;47.384;8.860;2023-02-15T13:30:33;95534.28;;;6.59;36.03
74921;BME280;63483;47.384;8.860;2023-02-15T13:33:06;95537.34;;;6.64;35.85
74921;BME280;63483;47.384;8.860;2023-02-15T13:35:46;95533.22;;;6.61;36.73
74921;BME280;63483;47.384;8.860;2023-02-15T13:41:52;95529.78;;;6.61;38.02
74921;BME280;63483;47.384;8.860;2023-02-15T13:44:38;95529.94;;;6.59;37.51
74921;BME280;63483;47.384;8.860;2023-02-15T13:47:34;95525.81;;;6.57;37.95
74921;BME280;63483;47.384;8.860;2023-02-15T13:52:34;95525.94;;;6.65;38.37
74921;BME280;63483;47.384;8.860;2023-02-15T14:03:51;95520.88;;;6.63;38.01
74921;BME280;63483;47.384;8.860;2023-02-15T14:09:24;95526.06;;;6.63;37.69
74921;BME280;63483;47.384;8.860;2023-02-15T14:22:31;95526.50;;;6.68;37.24
74921;BME280;63483;47.384;8.860;2023-02-15T14:25:30;95534.47;;;6.67;36.87
74921;BME280;63483;47.384;8.860;2023-02-15T14:28:09;95532.94;;;6.64;37.56
74921;BME280;63483;47.384;8.860;2023-02-15T14:30:43;95538.97;;;6.65;37.32
74921;BME280;63483;47.384;8.860;2023-02-15T14:33:35;95543.94;;;6.68;37.29
74921;BME280;63483;47.384;8.860;2023-02-15T14:36:04;95539.66;;;6.67;37.78
74921;BME280;63483;47.384;8.860;2023-02-15T14:41:59;95549.38;;;6.65;37.70
74921;BME280;63483;47.384;8.860;2023-02-15T14:44:33;95541.47;;;6.66;37.65
74921;BME280;63483;47.384;8.860;2023-02-15T14:47:11;95538.97;;;6.65;38.41
74921;BME280;63483;47.384;8.860;2023-02-15T14:49:42;95536.34;;;6.65;38.12
74921;BME280;63483;47.384;8.860;2023-02-15T14:52:09;95544.16;;;6.65;38.28
74921;BME280;63483;47.384;8.860;2023-02-15T15:00:01;95538.72;;;6.68;38.40
74921;BME280;63483;47.384;8.860;2023-02-15T15:02:50;95535.84;;;6.71;37.96
74921;BME280;63483;47.384;8.860;2023-02-15T15:05:36;95536.13;;;6.68;37.83
74921;BME280;63483;47.384;8.860;2023-02-15T15:08:22;95536.94;;;6.68;38.24
74921;BME280;63483;47.384;8.860;2023-02-15T15:10:50;95542.28;;;6.67;37.60
74921;BME280;63483;47.384;8.860;2023-02-15T15:16:28;95534.31;;;6.68;37.55
74921;BME280;63483;47.384;8.860;2023-02-15T15:18:55;95528.97;;;6.70;36.95
74921;BME280;63483;47.384;8.860;2023-02-15T15:27:43;95531.72;;;6.68;36.52
74921;BME280;63483;47.384;8.860;2023-02-15T15:32:42;95523.91;;;6.68;36.92
74921;BME280;63483;47.384;8.860;2023-02-15T15:43:34;95521.41;;;6.47;37.55
74921;BME280;63483;47.384;8.860;2023-02-15T15:48:45;95523.75;;;6.29;38.27
74921;BME280;63483;47.384;8.860;2023-02-15T15:51:43;95525.06;;;6.14;38.30
74921;BME280;63483;47.384;8.860;2023-02-15T15:54:20;95523.41;;;6.03;37.75